sensor_id;sensor_type;location;lat;lon;timestamp;P1;durP1;ratioP1;P2;durP2;ratioP2
12129;SDS011;6128;59.340;18.040;2022-11-15T00:00:10;0.90;;;0.70;;
12129;SDS011;6128;59.340;18.040;2022-11-15T00:02:37;1.30;;;0.80;;
12129;SDS011;6128;59.340;18.040;2022-11-15T00:05:05;0.53;;;0.53;;
12129;SDS011;6128;59.340;18.040;2022-11-15T00:07:32;0.90;;;0.70;;
12129;SDS011;6128;59.340;18.040;2022-11-15T00:10:01;0.57;;;0.57;;
12129;SDS011;6128;59.340;18.040;2022-11-15T00:12:29;0.83;;;0.60;;
12129;SDS011;6128;59.340;18.040;2022-11-15T00:14:56;0.57;;;0.50;;
12129;SDS011;6128;59.340;18.040;2022-11-15T00:17:23;0.63;;;0.60;;
12129;SDS011;6128;59.340;18.040;2022-11-15T00:19:50;1.13;;;0.53;;
12129;SDS011;6128;59.340;18.040;2022-11-15T00:22:17;0.50;;;0.50;;
12129;SDS011;6128;59.340;18.040;2022-11-15T00:24:45;0.60;;;0.40;;
12129;SDS011;6128;59.340;18.040;2022-11-15T00:27:12;0.60;;;0.50;;
12129;SDS011;6128;59.340;18.040;2022-11-15T00:29:41;0.50;;;0.50;;
12129;SDS011;6128;59.340;18.040;2022-11-15T00:32:09;0.60;;;0.60;;
12129;SDS011;6128;59.340;18.040;2022-11-15T00:34:38;0.60;;;0.60;;
12129;SDS011;6128;59.340;18.040;2022-11-15T00:37:06;0.50;;;0.50;;
12129;SDS011;6128;59.340;18.040;2022-11-15T00:39:33;0.70;;;0.70;;
12129;SDS011;6128;59.340;18.040;2022-11-15T00:42:00;0.60;;;0.60;;
12129;SDS011;6128;59.340;18.040;2022-11-15T00:44:27;0.67;;;0.67;;
12129;SDS011;6128;59.340;18.040;2022-11-15T00:46:56;0.70;;;0.70;;
12129;SDS011;6128;59.340;18.040;2022-11-15T00:49:23;0.73;;;0.73;;
12129;SDS011;6128;59.340;18.040;2022-11-15T00:51:50;0.80;;;0.80;;
12129;SDS011;6128;59.340;18.040;2022-11-15T00:54:17;0.90;;;0.90;;
12129;SDS011;6128;59.340;18.040;2022-11-15T00:56:45;0.80;;;0.80;;
12129;SDS011;6128;59.340;18.040;2022-11-15T00:59:12;0.80;;;0.80;;
12129;SDS011;6128;59.340;18.040;2022-11-15T01:01:39;0.80;;;0.80;;
12129;SDS011;6128;59.340;18.040;2022-11-15T01:04:07;0.50;;;0.50;;
12129;SDS011;6128;59.340;18.040;2022-11-15T01:06:35;0.50;;;0.50;;
12129;SDS011;6128;59.340;18.040;2022-11-15T01:09:02;0.60;;;0.60;;
12129;SDS011;6128;59.340;18.040;2022-11-15T01:11:29;1.00;;;0.57;;
12129;SDS011;6128;59.340;18.040;2022-11-15T01:13:56;0.70;;;0.70;;
12129;SDS011;6128;59.340;18.040;2022-11-15T01:16:23;0.60;;;0.60;;
12129;SDS011;6128;59.340;18.040;2022-11-15T01:18:50;0.50;;;0.50;;
12129;SDS011;6128;59.340;18.040;2022-11-15T01:21:19;0.50;;;0.50;;
12129;SDS011;6128;59.340;18.040;2022-11-15T01:23:46;0.73;;;0.70;;
12129;SDS011;6128;59.340;18.040;2022-11-15T01:26:14;0.70;;;0.70;;
12129;SDS011;6128;59.340;18.040;2022-11-15T01:28:42;0.67;;;0.67;;
12129;SDS011;6128;59.340;18.040;2022-11-15T01:31:11;0.60;;;0.60;;
12129;SDS011;6128;59.340;18.040;2022-11-15T01:33:39;1.00;;;0.80;;
12129;SDS011;6128;59.340;18.040;2022-11-15T01:36:07;0.80;;;0.60;;
12129;SDS011;6128;59.340;18.040;2022-11-15T01:38:38;1.80;;;0.63;;
12129;SDS011;6128;59.340;18.040;2022-11-15T01:41:06;0.93;;;0.40;;
12129;SDS011;6128;59.340;18.040;2022-11-15T01:43:39;1.10;;;0.40;;
12129;SDS011;6128;59.340;18.040;2022-11-15T01:46:10;0.40;;;0.40;;
12129;SDS011;6128;59.340;18.040;2022-11-15T01:48:55;0.30;;;0.30;;
12129;SDS011;6128;59.340;18.040;2022-11-15T01:51:27;0.40;;;0.40;;
12129;SDS011;6128;59.340;18.040;2022-11-15T01:54:00;0.23;;;0.23;;
12129;SDS011;6128;59.340;18.040;2022-11-15T01:56:30;1.70;;;0.33;;
12129;SDS011;6128;59.340;18.040;2022-11-15T01:59:03;0.70;;;0.37;;
12129;SDS011;6128;59.340;18.040;2022-11-15T02:01:33;0.30;;;0.30;;
12129;SDS011;6128;59.340;18.040;2022-11-15T02:04:01;0.87;;;0.30;;
12129;SDS011;6128;59.340;18.040;2022-11-15T02:06:34;0.60;;;0.30;;
12129;SDS011;6128;59.340;18.040;2022-11-15T02:09:03;0.37;;;0.23;;
12129;SDS011;6128;59.340;18.040;2022-11-15T02:11:30;0.60;;;0.53;;
12129;SDS011;6128;59.340;18.040;2022-11-15T02:13:58;0.90;;;0.90;;
12129;SDS011;6128;59.340;18.040;2022-11-15T02:16:27;0.80;;;0.80;;
12129;SDS011;6128;59.340;18.040;2022-11-15T02:19:04;0.60;;;0.60;;
12129;SDS011;6128;59.340;18.040;2022-11-15T02:21:40;1.03;;;0.93;;
12129;SDS011;6128;59.340;18.040;2022-11-15T02:27:30;1.37;;;1.27;;
12129;SDS011;6128;59.340;18.040;2022-11-15T02:30:24;0.80;;;0.80;;
12129;SDS011;6128;59.340;18.040;2022-11-15T02:32:58;1.07;;;1.07;;
12129;SDS011;6128;59.340;18.040;2022-11-15T02:35:32;0.80;;;0.80;;
12129;SDS011;6128;59.340;18.040;2022-11-15T02:38:07;2.10;;;1.03;;
12129;SDS011;6128;59.340;18.040;2022-11-15T02:40:45;1.10;;;1.00;;
12129;SDS011;6128;59.340;18.040;2022-11-15T02:43:20;0.83;;;0.83;;
12129;SDS011;6128;59.340;18.040;2022-11-15T02:46:13;1.10;;;1.03;;
12129;SDS011;6128;59.340;18.040;2022-11-15T02:48:45;1.30;;;1.20;;
12129;SDS011;6128;59.340;18.040;2022-11-15T02:51:12;0.90;;;0.90;;
12129;SDS011;6128;59.340;18.040;2022-11-15T02:53:41;1.17;;;1.10;;
12129;SDS011;6128;59.340;18.040;2022-11-15T02:56:08;0.90;;;0.90;;
12129;SDS011;6128;59.340;18.040;2022-11-15T03:01:37;1.40;;;1.30;;
12129;SDS011;6128;59.340;18.040;2022-11-15T03:04:12;2.30;;;1.07;;
12129;SDS011;6128;59.340;18.040;2022-11-15T03:06:51;1.33;;;1.23;;
12129;SDS011;6128;59.340;18.040;2022-11-15T03:09:28;1.00;;;0.87;;
12129;SDS011;6128;59.340;18.040;2022-11-15T03:12:03;0.80;;;0.80;;
12129;SDS011;6128;59.340;18.040;2022-11-15T03:14:39;0.77;;;0.77;;
12129;SDS011;6128;59.340;18.040;2022-11-15T03:17:16;0.77;;;0.77;;
12129;SDS011;6128;59.340;18.040;2022-11-15T03:19:50;0.70;;;0.70;;
12129;SDS011;6128;59.340;18.040;2022-11-15T03:22:20;1.73;;;1.10;;
12129;SDS011;6128;59.340;18.040;2022-11-15T03:24:52;1.00;;;1.00;;
12129;SDS011;6128;59.340;18.040;2022-11-15T03:27:23;1.00;;;1.00;;
12129;SDS011;6128;59.340;18.040;2022-11-15T03:29:54;0.80;;;0.80;;
12129;SDS011;6128;59.340;18.040;2022-11-15T03:32:28;0.70;;;0.70;;
12129;SDS011;6128;59.340;18.040;2022-11-15T03:34:58;0.73;;;0.73;;
12129;SDS011;6128;59.340;18.040;2022-11-15T03:37:29;1.10;;;1.00;;
12129;SDS011;6128;59.340;18.040;2022-11-15T03:40:01;0.87;;;0.87;;
12129;SDS011;6128;59.340;18.040;2022-11-15T03:42:30;0.97;;;0.80;;
12129;SDS011;6128;59.340;18.040;2022-11-15T03:45:07;0.80;;;0.80;;
12129;SDS011;6128;59.340;18.040;2022-11-15T03:47:43;0.90;;;0.90;;
12129;SDS011;6128;59.340;18.040;2022-11-15T03:50:15;0.80;;;0.70;;
12129;SDS011;6128;59.340;18.040;2022-11-15T03:52:45;0.90;;;0.90;;
12129;SDS011;6128;59.340;18.040;2022-11-15T03:55:15;0.87;;;0.87;;
12129;SDS011;6128;59.340;18.040;2022-11-15T03:57:43;0.90;;;0.90;;
12129;SDS011;6128;59.340;18.040;2022-11-15T04:00:14;0.80;;;0.80;;
12129;SDS011;6128;59.340;18.040;2022-11-15T04:02:43;1.97;;;1.13;;
12129;SDS011;6128;59.340;18.040;2022-11-15T04:05:10;1.83;;;1.30;;
12129;SDS011;6128;59.340;18.040;2022-11-15T04:07:37;1.33;;;1.23;;
12129;SDS011;6128;59.340;18.040;2022-11-15T04:10:05;1.20;;;1.20;;
12129;SDS011;6128;59.340;18.040;2022-11-15T04:12:34;0.90;;;0.90;;
12129;SDS011;6128;59.340;18.040;2022-11-15T04:15:03;1.30;;;1.20;;
12129;SDS011;6128;59.340;18.040;2022-11-15T04:17:35;1.30;;;1.23;;
12129;SDS011;6128;59.340;18.040;2022-11-15T04:20:05;1.00;;;0.80;;
12129;SDS011;6128;59.340;18.040;2022-11-15T04:22:53;1.07;;;1.03;;
12129;SDS011;6128;59.340;18.040;2022-11-15T04:25:38;1.33;;;1.23;;
12129;SDS011;6128;59.340;18.040;2022-11-15T04:28:05;1.27;;;1.13;;
12129;SDS011;6128;59.340;18.040;2022-11-15T04:30:33;0.90;;;0.90;;
12129;SDS011;6128;59.340;18.040;2022-11-15T04:33:00;1.20;;;1.10;;
12129;SDS011;6128;59.340;18.040;2022-11-15T04:35:29;1.03;;;1.03;;
12129;SDS011;6128;59.340;18.040;2022-11-15T04:37:57;2.10;;;1.00;;
12129;SDS011;6128;59.340;18.040;2022-11-15T04:40:24;1.10;;;1.00;;
12129;SDS011;6128;59.340;18.040;2022-11-15T04:42:51;1.07;;;1.03;;
12129;SDS011;6128;59.340;18.040;2022-11-15T04:45:18;2.43;;;1.00;;
12129;SDS011;6128;59.340;18.040;2022-11-15T04:47:46;1.40;;;1.30;;
12129;SDS011;6128;59.340;18.040;2022-11-15T04:50:13;2.30;;;1.20;;
12129;SDS011;6128;59.340;18.040;2022-11-15T04:52:43;1.30;;;1.20;;
12129;SDS011;6128;59.340;18.040;2022-11-15T04:55:17;1.40;;;1.30;;
12129;SDS011;6128;59.340;18.040;2022-11-15T04:57:44;3.40;;;1.43;;
12129;SDS011;6128;59.340;18.040;2022-11-15T05:00:13;1.40;;;1.30;;
12129;SDS011;6128;59.340;18.040;2022-11-15T05:02:41;1.73;;;1.23;;
12129;SDS011;6128;59.340;18.040;2022-11-15T05:05:25;2.73;;;1.10;;
12129;SDS011;6128;59.340;18.040;2022-11-15T05:07:54;2.30;;;1.40;;
12129;SDS011;6128;59.340;18.040;2022-11-15T05:10:21;1.90;;;1.80;;
12129;SDS011;6128;59.340;18.040;2022-11-15T05:12:48;1.20;;;1.07;;
12129;SDS011;6128;59.340;18.040;2022-11-15T05:15:15;1.00;;;1.00;;
12129;SDS011;6128;59.340;18.040;2022-11-15T05:17:43;1.10;;;0.90;;
12129;SDS011;6128;59.340;18.040;2022-11-15T05:20:10;1.27;;;1.10;;
12129;SDS011;6128;59.340;18.040;2022-11-15T05:22:38;2.03;;;1.40;;
12129;SDS011;6128;59.340;18.040;2022-11-15T05:25:08;2.17;;;1.13;;
12129;SDS011;6128;59.340;18.040;2022-11-15T05:27:35;2.40;;;1.20;;
12129;SDS011;6128;59.340;18.040;2022-11-15T05:30:02;2.00;;;1.30;;
12129;SDS011;6128;59.340;18.040;2022-11-15T05:32:29;3.37;;;1.37;;
12129;SDS011;6128;59.340;18.040;2022-11-15T05:34:57;1.37;;;1.10;;
12129;SDS011;6128;59.340;18.040;2022-11-15T05:37:24;1.20;;;1.10;;
12129;SDS011;6128;59.340;18.040;2022-11-15T05:39:51;2.60;;;1.13;;
12129;SDS011;6128;59.340;18.040;2022-11-15T05:42:20;1.97;;;1.00;;
12129;SDS011;6128;59.340;18.040;2022-11-15T05:44:47;1.97;;;1.10;;
12129;SDS011;6128;59.340;18.040;2022-11-15T05:47:16;1.37;;;0.90;;
12129;SDS011;6128;59.340;18.040;2022-11-15T05:49:46;1.83;;;0.90;;
12129;SDS011;6128;59.340;18.040;2022-11-15T05:52:17;2.97;;;2.00;;
12129;SDS011;6128;59.340;18.040;2022-11-15T05:54:49;2.40;;;1.03;;
12129;SDS011;6128;59.340;18.040;2022-11-15T05:57:16;1.90;;;1.20;;
12129;SDS011;6128;59.340;18.040;2022-11-15T05:59:45;2.10;;;0.90;;
12129;SDS011;6128;59.340;18.040;2022-11-15T06:02:12;1.03;;;0.93;;
12129;SDS011;6128;59.340;18.040;2022-11-15T06:04:39;2.27;;;0.80;;
12129;SDS011;6128;59.340;18.040;2022-11-15T06:07:06;1.30;;;0.97;;
12129;SDS011;6128;59.340;18.040;2022-11-15T06:09:33;3.07;;;1.13;;
12129;SDS011;6128;59.340;18.040;2022-11-15T06:12:00;1.03;;;0.60;;
12129;SDS011;6128;59.340;18.040;2022-11-15T06:14:27;2.30;;;0.80;;
12129;SDS011;6128;59.340;18.040;2022-11-15T06:16:56;1.23;;;0.67;;
12129;SDS011;6128;59.340;18.040;2022-11-15T06:19:23;1.20;;;0.57;;
12129;SDS011;6128;59.340;18.040;2022-11-15T06:21:50;0.87;;;0.70;;
12129;SDS011;6128;59.340;18.040;2022-11-15T06:24:17;0.80;;;0.60;;
12129;SDS011;6128;59.340;18.040;2022-11-15T06:26:45;0.93;;;0.80;;
12129;SDS011;6128;59.340;18.040;2022-11-15T06:29:12;1.50;;;0.70;;
12129;SDS011;6128;59.340;18.040;2022-11-15T06:31:39;1.43;;;0.40;;
12129;SDS011;6128;59.340;18.040;2022-11-15T06:34:07;1.03;;;0.53;;
12129;SDS011;6128;59.340;18.040;2022-11-15T06:36:35;1.83;;;0.60;;
12129;SDS011;6128;59.340;18.040;2022-11-15T06:39:02;2.47;;;0.60;;
12129;SDS011;6128;59.340;18.040;2022-11-15T06:41:30;1.03;;;0.60;;
12129;SDS011;6128;59.340;18.040;2022-11-15T06:43:59;1.90;;;0.70;;
12129;SDS011;6128;59.340;18.040;2022-11-15T06:46:29;2.10;;;0.70;;
12129;SDS011;6128;59.340;18.040;2022-11-15T06:48:57;1.83;;;0.60;;
12129;SDS011;6128;59.340;18.040;2022-11-15T06:51:25;1.47;;;0.50;;
12129;SDS011;6128;59.340;18.040;2022-11-15T06:53:52;1.33;;;0.60;;
12129;SDS011;6128;59.340;18.040;2022-11-15T06:56:19;1.30;;;0.50;;
12129;SDS011;6128;59.340;18.040;2022-11-15T06:58:46;2.50;;;0.60;;
12129;SDS011;6128;59.340;18.040;2022-11-15T07:01:13;2.40;;;0.93;;
12129;SDS011;6128;59.340;18.040;2022-11-15T07:03:41;1.27;;;0.80;;
12129;SDS011;6128;59.340;18.040;2022-11-15T07:06:09;1.53;;;0.70;;
12129;SDS011;6128;59.340;18.040;2022-11-15T07:08:38;1.93;;;0.60;;
12129;SDS011;6128;59.340;18.040;2022-11-15T07:11:07;1.33;;;0.60;;
12129;SDS011;6128;59.340;18.040;2022-11-15T07:13:36;2.50;;;1.10;;
12129;SDS011;6128;59.340;18.040;2022-11-15T07:16:05;3.27;;;0.70;;
12129;SDS011;6128;59.340;18.040;2022-11-15T07:18:34;1.10;;;0.60;;
12129;SDS011;6128;59.340;18.040;2022-11-15T07:21:02;3.27;;;0.90;;
12129;SDS011;6128;59.340;18.040;2022-11-15T07:23:30;1.27;;;0.60;;
12129;SDS011;6128;59.340;18.040;2022-11-15T07:25:58;1.30;;;1.00;;
12129;SDS011;6128;59.340;18.040;2022-11-15T07:28:26;2.50;;;0.70;;
12129;SDS011;6128;59.340;18.040;2022-11-15T07:30:53;2.70;;;0.73;;
12129;SDS011;6128;59.340;18.040;2022-11-15T07:33:20;2.67;;;1.20;;
12129;SDS011;6128;59.340;18.040;2022-11-15T07:35:48;0.90;;;0.67;;
12129;SDS011;6128;59.340;18.040;2022-11-15T07:38:16;2.27;;;0.60;;
12129;SDS011;6128;59.340;18.040;2022-11-15T07:40:45;0.73;;;0.43;;
12129;SDS011;6128;59.340;18.040;2022-11-15T07:43:14;2.80;;;0.60;;
12129;SDS011;6128;59.340;18.040;2022-11-15T07:45:42;2.57;;;0.50;;
12129;SDS011;6128;59.340;18.040;2022-11-15T07:48:10;2.87;;;0.80;;
12129;SDS011;6128;59.340;18.040;2022-11-15T07:50:40;2.37;;;0.80;;
12129;SDS011;6128;59.340;18.040;2022-11-15T07:53:07;3.33;;;0.60;;
12129;SDS011;6128;59.340;18.040;2022-11-15T07:55:35;1.27;;;0.73;;
12129;SDS011;6128;59.340;18.040;2022-11-15T07:58:04;1.10;;;0.50;;
12129;SDS011;6128;59.340;18.040;2022-11-15T08:00:34;2.07;;;0.90;;
12129;SDS011;6128;59.340;18.040;2022-11-15T08:03:03;2.23;;;0.60;;
12129;SDS011;6128;59.340;18.040;2022-11-15T08:05:31;1.00;;;0.60;;
12129;SDS011;6128;59.340;18.040;2022-11-15T08:07:58;1.50;;;0.53;;
12129;SDS011;6128;59.340;18.040;2022-11-15T08:10:26;4.63;;;0.70;;
12129;SDS011;6128;59.340;18.040;2022-11-15T08:12:58;1.40;;;0.53;;
12129;SDS011;6128;59.340;18.040;2022-11-15T08:15:25;2.00;;;0.77;;
12129;SDS011;6128;59.340;18.040;2022-11-15T08:17:54;3.53;;;0.77;;
12129;SDS011;6128;59.340;18.040;2022-11-15T08:20:22;1.83;;;0.63;;
12129;SDS011;6128;59.340;18.040;2022-11-15T08:22:50;2.80;;;0.80;;
12129;SDS011;6128;59.340;18.040;2022-11-15T08:25:17;2.63;;;0.80;;
12129;SDS011;6128;59.340;18.040;2022-11-15T08:27:44;1.17;;;0.60;;
12129;SDS011;6128;59.340;18.040;2022-11-15T08:30:12;1.17;;;0.43;;
12129;SDS011;6128;59.340;18.040;2022-11-15T08:32:41;2.17;;;0.63;;
12129;SDS011;6128;59.340;18.040;2022-11-15T08:35:09;3.33;;;0.80;;
12129;SDS011;6128;59.340;18.040;2022-11-15T08:37:36;2.37;;;0.47;;
12129;SDS011;6128;59.340;18.040;2022-11-15T08:40:04;2.20;;;0.67;;
12129;SDS011;6128;59.340;18.040;2022-11-15T08:42:32;1.63;;;0.60;;
12129;SDS011;6128;59.340;18.040;2022-11-15T08:44:59;1.90;;;0.77;;
12129;SDS011;6128;59.340;18.040;2022-11-15T08:47:27;1.20;;;0.77;;
12129;SDS011;6128;59.340;18.040;2022-11-15T08:49:54;1.90;;;0.50;;
12129;SDS011;6128;59.340;18.040;2022-11-15T08:52:22;1.50;;;0.70;;
12129;SDS011;6128;59.340;18.040;2022-11-15T08:54:50;1.50;;;0.57;;
12129;SDS011;6128;59.340;18.040;2022-11-15T08:57:17;3.00;;;0.67;;
12129;SDS011;6128;59.340;18.040;2022-11-15T08:59:44;1.67;;;0.60;;
12129;SDS011;6128;59.340;18.040;2022-11-15T09:02:11;1.03;;;0.40;;
12129;SDS011;6128;59.340;18.040;2022-11-15T09:04:40;2.10;;;0.63;;
12129;SDS011;6128;59.340;18.040;2022-11-15T09:07:08;0.93;;;0.30;;
12129;SDS011;6128;59.340;18.040;2022-11-15T09:09:38;2.03;;;0.90;;
12129;SDS011;6128;59.340;18.040;2022-11-15T09:12:05;2.33;;;0.77;;
12129;SDS011;6128;59.340;18.040;2022-11-15T09:14:33;2.50;;;0.90;;
12129;SDS011;6128;59.340;18.040;2022-11-15T09:17:00;2.83;;;0.80;;
12129;SDS011;6128;59.340;18.040;2022-11-15T09:19:28;3.83;;;0.77;;
12129;SDS011;6128;59.340;18.040;2022-11-15T09:21:55;1.43;;;1.00;;
12129;SDS011;6128;59.340;18.040;2022-11-15T09:24:22;1.60;;;1.47;;
12129;SDS011;6128;59.340;18.040;2022-11-15T09:26:51;2.67;;;0.60;;
12129;SDS011;6128;59.340;18.040;2022-11-15T09:29:18;2.10;;;0.80;;
12129;SDS011;6128;59.340;18.040;2022-11-15T09:31:45;3.97;;;2.10;;
12129;SDS011;6128;59.340;18.040;2022-11-15T09:34:12;1.60;;;1.10;;
12129;SDS011;6128;59.340;18.040;2022-11-15T09:36:40;2.00;;;0.60;;
12129;SDS011;6128;59.340;18.040;2022-11-15T09:39:07;1.77;;;0.70;;
12129;SDS011;6128;59.340;18.040;2022-11-15T09:41:39;1.77;;;0.93;;
12129;SDS011;6128;59.340;18.040;2022-11-15T09:44:26;1.83;;;0.63;;
12129;SDS011;6128;59.340;18.040;2022-11-15T09:47:27;2.60;;;0.50;;
12129;SDS011;6128;59.340;18.040;2022-11-15T09:50:08;1.27;;;0.30;;
12129;SDS011;6128;59.340;18.040;2022-11-15T09:52:37;1.23;;;0.37;;
12129;SDS011;6128;59.340;18.040;2022-11-15T09:55:09;1.77;;;0.40;;
12129;SDS011;6128;59.340;18.040;2022-11-15T09:57:40;0.77;;;0.40;;
12129;SDS011;6128;59.340;18.040;2022-11-15T10:00:16;1.87;;;0.20;;
12129;SDS011;6128;59.340;18.040;2022-11-15T10:02:49;1.17;;;0.60;;
12129;SDS011;6128;59.340;18.040;2022-11-15T10:05:36;3.40;;;0.50;;
12129;SDS011;6128;59.340;18.040;2022-11-15T10:08:06;1.63;;;0.30;;
12129;SDS011;6128;59.340;18.040;2022-11-15T10:10:54;1.50;;;0.60;;
12129;SDS011;6128;59.340;18.040;2022-11-15T10:13:24;1.70;;;0.30;;
12129;SDS011;6128;59.340;18.040;2022-11-15T10:15:54;1.80;;;0.37;;
12129;SDS011;6128;59.340;18.040;2022-11-15T10:18:29;1.87;;;0.40;;
12129;SDS011;6128;59.340;18.040;2022-11-15T10:21:06;2.87;;;0.63;;
12129;SDS011;6128;59.340;18.040;2022-11-15T10:23:41;0.67;;;0.50;;
12129;SDS011;6128;59.340;18.040;2022-11-15T10:26:10;1.00;;;0.20;;
12129;SDS011;6128;59.340;18.040;2022-11-15T10:28:49;2.97;;;0.67;;
12129;SDS011;6128;59.340;18.040;2022-11-15T10:31:27;0.73;;;0.30;;
12129;SDS011;6128;59.340;18.040;2022-11-15T10:33:58;0.43;;;0.40;;
12129;SDS011;6128;59.340;18.040;2022-11-15T10:36:37;1.73;;;0.80;;
12129;SDS011;6128;59.340;18.040;2022-11-15T10:39:04;1.70;;;0.70;;
12129;SDS011;6128;59.340;18.040;2022-11-15T10:41:33;2.53;;;0.97;;
12129;SDS011;6128;59.340;18.040;2022-11-15T10:44:18;2.03;;;1.07;;
12129;SDS011;6128;59.340;18.040;2022-11-15T10:47:03;1.37;;;0.50;;
12129;SDS011;6128;59.340;18.040;2022-11-15T10:49:53;1.67;;;0.50;;
12129;SDS011;6128;59.340;18.040;2022-11-15T10:52:24;1.33;;;0.67;;
12129;SDS011;6128;59.340;18.040;2022-11-15T10:54:54;1.43;;;0.67;;
12129;SDS011;6128;59.340;18.040;2022-11-15T10:57:24;1.33;;;0.63;;
12129;SDS011;6128;59.340;18.040;2022-11-15T10:59:57;3.27;;;0.73;;
12129;SDS011;6128;59.340;18.040;2022-11-15T11:02:29;1.67;;;0.70;;
12129;SDS011;6128;59.340;18.040;2022-11-15T11:04:59;0.63;;;0.33;;
12129;SDS011;6128;59.340;18.040;2022-11-15T11:07:31;1.40;;;0.20;;
12129;SDS011;6128;59.340;18.040;2022-11-15T11:10:05;0.93;;;0.53;;
12129;SDS011;6128;59.340;18.040;2022-11-15T11:12:44;1.80;;;0.30;;
12129;SDS011;6128;59.340;18.040;2022-11-15T11:15:12;1.93;;;0.83;;
12129;SDS011;6128;59.340;18.040;2022-11-15T11:17:47;3.57;;;0.67;;
12129;SDS011;6128;59.340;18.040;2022-11-15T11:20:23;0.60;;;0.50;;
12129;SDS011;6128;59.340;18.040;2022-11-15T11:23:14;1.13;;;0.50;;
12129;SDS011;6128;59.340;18.040;2022-11-15T11:25:51;1.03;;;0.50;;
12129;SDS011;6128;59.340;18.040;2022-11-15T11:28:32;0.90;;;0.60;;
12129;SDS011;6128;59.340;18.040;2022-11-15T11:31:10;1.00;;;0.53;;
12129;SDS011;6128;59.340;18.040;2022-11-15T11:33:51;2.03;;;0.80;;
12129;SDS011;6128;59.340;18.040;2022-11-15T11:36:27;1.40;;;0.70;;
12129;SDS011;6128;59.340;18.040;2022-11-15T11:39:08;3.17;;;0.70;;
12129;SDS011;6128;59.340;18.040;2022-11-15T11:41:49;2.03;;;0.37;;
12129;SDS011;6128;59.340;18.040;2022-11-15T11:47:17;1.77;;;0.50;;
12129;SDS011;6128;59.340;18.040;2022-11-15T11:49:50;0.87;;;0.67;;
12129;SDS011;6128;59.340;18.040;2022-11-15T11:52:21;0.97;;;0.60;;
12129;SDS011;6128;59.340;18.040;2022-11-15T11:54:54;3.30;;;0.63;;
12129;SDS011;6128;59.340;18.040;2022-11-15T11:57:30;2.27;;;0.60;;
12129;SDS011;6128;59.340;18.040;2022-11-15T12:00:02;0.80;;;0.53;;
12129;SDS011;6128;59.340;18.040;2022-11-15T12:02:38;0.60;;;0.50;;
12129;SDS011;6128;59.340;18.040;2022-11-15T12:05:18;0.90;;;0.53;;
12129;SDS011;6128;59.340;18.040;2022-11-15T12:07:51;1.00;;;0.50;;
12129;SDS011;6128;59.340;18.040;2022-11-15T12:10:26;1.87;;;0.60;;
12129;SDS011;6128;59.340;18.040;2022-11-15T12:12:58;2.27;;;0.70;;
12129;SDS011;6128;59.340;18.040;2022-11-15T12:15:31;0.97;;;0.53;;
12129;SDS011;6128;59.340;18.040;2022-11-15T12:18:07;1.20;;;0.47;;
12129;SDS011;6128;59.340;18.040;2022-11-15T12:20:47;1.23;;;0.50;;
12129;SDS011;6128;59.340;18.040;2022-11-15T12:23:19;1.07;;;0.57;;
12129;SDS011;6128;59.340;18.040;2022-11-15T12:25:54;2.03;;;0.60;;
12129;SDS011;6128;59.340;18.040;2022-11-15T12:28:29;3.77;;;0.90;;
12129;SDS011;6128;59.340;18.040;2022-11-15T12:31:03;0.93;;;0.70;;
12129;SDS011;6128;59.340;18.040;2022-11-15T12:33:37;1.17;;;0.70;;
12129;SDS011;6128;59.340;18.040;2022-11-15T12:36:10;1.83;;;0.43;;
12129;SDS011;6128;59.340;18.040;2022-11-15T12:38:56;1.53;;;0.60;;
12129;SDS011;6128;59.340;18.040;2022-11-15T12:41:24;1.97;;;0.80;;
12129;SDS011;6128;59.340;18.040;2022-11-15T12:43:53;1.13;;;0.40;;
12129;SDS011;6128;59.340;18.040;2022-11-15T12:46:21;1.30;;;0.50;;
12129;SDS011;6128;59.340;18.040;2022-11-15T12:49:11;0.90;;;0.40;;
12129;SDS011;6128;59.340;18.040;2022-11-15T12:52:07;1.37;;;0.70;;
12129;SDS011;6128;59.340;18.040;2022-11-15T12:57:56;0.67;;;0.37;;
12129;SDS011;6128;59.340;18.040;2022-11-15T13:01:07;0.57;;;0.33;;
12129;SDS011;6128;59.340;18.040;2022-11-15T13:03:34;1.87;;;0.80;;
12129;SDS011;6128;59.340;18.040;2022-11-15T13:06:09;1.43;;;0.50;;
12129;SDS011;6128;59.340;18.040;2022-11-15T13:08:52;1.30;;;0.60;;
12129;SDS011;6128;59.340;18.040;2022-11-15T13:20:02;2.50;;;0.83;;
12129;SDS011;6128;59.340;18.040;2022-11-15T13:23:02;1.37;;;0.60;;
12129;SDS011;6128;59.340;18.040;2022-11-15T13:28:29;1.37;;;0.50;;
12129;SDS011;6128;59.340;18.040;2022-11-15T13:30:59;1.57;;;0.70;;
12129;SDS011;6128;59.340;18.040;2022-11-15T13:33:30;1.80;;;0.70;;
12129;SDS011;6128;59.340;18.040;2022-11-15T13:36:00;1.10;;;0.60;;
12129;SDS011;6128;59.340;18.040;2022-11-15T13:38:32;1.43;;;0.47;;
12129;SDS011;6128;59.340;18.040;2022-11-15T13:41:11;0.97;;;0.83;;
12129;SDS011;6128;59.340;18.040;2022-11-15T13:43:45;1.17;;;0.40;;
12129;SDS011;6128;59.340;18.040;2022-11-15T13:46:13;0.50;;;0.47;;
12129;SDS011;6128;59.340;18.040;2022-11-15T13:48:43;3.33;;;0.50;;
12129;SDS011;6128;59.340;18.040;2022-11-15T13:51:15;1.23;;;0.60;;
12129;SDS011;6128;59.340;18.040;2022-11-15T13:53:46;1.17;;;0.70;;
12129;SDS011;6128;59.340;18.040;2022-11-15T13:56:19;2.13;;;0.70;;
12129;SDS011;6128;59.340;18.040;2022-11-15T13:58:47;2.07;;;0.80;;
12129;SDS011;6128;59.340;18.040;2022-11-15T14:01:15;2.47;;;0.90;;
12129;SDS011;6128;59.340;18.040;2022-11-15T14:03:50;1.03;;;0.50;;
12129;SDS011;6128;59.340;18.040;2022-11-15T14:06:22;0.80;;;0.60;;
12129;SDS011;6128;59.340;18.040;2022-11-15T14:08:59;1.07;;;0.50;;
12129;SDS011;6128;59.340;18.040;2022-11-15T14:11:30;1.63;;;0.50;;
12129;SDS011;6128;59.340;18.040;2022-11-15T14:14:11;1.20;;;0.40;;
12129;SDS011;6128;59.340;18.040;2022-11-15T14:16:41;1.40;;;0.60;;
12129;SDS011;6128;59.340;18.040;2022-11-15T14:19:10;0.60;;;0.40;;
12129;SDS011;6128;59.340;18.040;2022-11-15T14:28:07;1.57;;;0.87;;
12129;SDS011;6128;59.340;18.040;2022-11-15T14:30:54;3.10;;;0.50;;
12129;SDS011;6128;59.340;18.040;2022-11-15T14:33:25;1.23;;;0.60;;
12129;SDS011;6128;59.340;18.040;2022-11-15T14:35:56;6.80;;;0.80;;
12129;SDS011;6128;59.340;18.040;2022-11-15T14:38:25;1.90;;;0.47;;
12129;SDS011;6128;59.340;18.040;2022-11-15T14:40:53;1.83;;;0.50;;
12129;SDS011;6128;59.340;18.040;2022-11-15T14:43:23;1.83;;;0.70;;
12129;SDS011;6128;59.340;18.040;2022-11-15T14:45:50;0.80;;;0.40;;
12129;SDS011;6128;59.340;18.040;2022-11-15T14:48:17;0.80;;;0.40;;
12129;SDS011;6128;59.340;18.040;2022-11-15T14:50:44;1.37;;;0.50;;
12129;SDS011;6128;59.340;18.040;2022-11-15T14:53:12;3.83;;;0.43;;
12129;SDS011;6128;59.340;18.040;2022-11-15T14:55:45;3.73;;;0.50;;
12129;SDS011;6128;59.340;18.040;2022-11-15T14:58:12;2.40;;;1.27;;
12129;SDS011;6128;59.340;18.040;2022-11-15T15:00:41;2.00;;;0.50;;
12129;SDS011;6128;59.340;18.040;2022-11-15T15:03:08;1.93;;;0.60;;
12129;SDS011;6128;59.340;18.040;2022-11-15T15:05:36;5.07;;;0.70;;
12129;SDS011;6128;59.340;18.040;2022-11-15T15:08:04;0.63;;;0.37;;
12129;SDS011;6128;59.340;18.040;2022-11-15T15:10:33;0.93;;;0.30;;
12129;SDS011;6128;59.340;18.040;2022-11-15T15:13:01;2.23;;;0.57;;
12129;SDS011;6128;59.340;18.040;2022-11-15T15:15:31;1.00;;;0.57;;
12129;SDS011;6128;59.340;18.040;2022-11-15T15:18:00;2.73;;;0.50;;
12129;SDS011;6128;59.340;18.040;2022-11-15T15:20:28;0.83;;;0.27;;
12129;SDS011;6128;59.340;18.040;2022-11-15T15:22:56;1.10;;;0.30;;
12129;SDS011;6128;59.340;18.040;2022-11-15T15:25:24;1.07;;;0.50;;
12129;SDS011;6128;59.340;18.040;2022-11-15T15:27:54;0.77;;;0.40;;
12129;SDS011;6128;59.340;18.040;2022-11-15T15:30:22;1.37;;;0.80;;
12129;SDS011;6128;59.340;18.040;2022-11-15T15:32:49;2.97;;;0.60;;
12129;SDS011;6128;59.340;18.040;2022-11-15T15:35:18;1.17;;;0.40;;
12129;SDS011;6128;59.340;18.040;2022-11-15T15:37:46;0.87;;;0.33;;
12129;SDS011;6128;59.340;18.040;2022-11-15T15:40:15;3.73;;;0.67;;